Time;durP1;ratioP1;P1;durP2;ratioP2;P2;SDS_P1;SDS_P2;PMS_P1;PMS_P2;Temp;Humidity;BMP_temperature;BMP_pressure;BME280_temperature;BME280_humidity;BME280_pressure;Samples;Min_cycle;Max_cycle;Signal;HPM_P1;HPM_P2
2022/10/25 00:01:23;;;;;;;27.90;18.60;;;;;;;;;;4936107;28;20058;-70
2022/10/25 00:03:49;;;;;;;25.25;18.40;;;;;;;;;;4936252;28;20502;-69
2022/10/25 00:06:15;;;;;;;30.40;18.90;;;;;;;;;;4935737;28;20050;-70
2022/10/25 00:08:41;;;;;;;29.30;18.73;;;;;;;;;;4934640;28;20051;-70
2022/10/25 00:11:08;;;;;;;29.65;19.52;;;;;;;;;;4937480;28;20133;-70
2022/10/25 00:13:34;;;;;;;30.85;19.27;;;;;;;;;;4938816;28;20043;-68
2022/10/25 00:16:00;;;;;;;27.55;19.73;;;;;;;;;;4936871;28;20131;-69
2022/10/25 00:18:26;;;;;;;28.65;18.52;;;;;;;;;;4933148;28;20119;-69
2022/10/25 00:20:52;;;;;;;27.77;18.40;;;;;;;;;;4934489;28;20047;-71
2022/10/25 00:23:17;;;;;;;27.83;19.15;;;;;;;;;;4939838;28;20046;-70
2022/10/25 00:25:43;;;;;;;29.42;19.38;;;;;;;;;;4934523;28;20505;-70
2022/10/25 00:28:10;;;;;;;29.73;18.77;;;;;;;;;;4936821;28;20051;-70
2022/10/25 00:30:36;;;;;;;29.20;18.33;;;;;;;;;;4936006;28;20070;-70
2022/10/25 00:33:02;;;;;;;28.33;18.40;;;;;;;;;;4941244;28;20489;-70
2022/10/25 00:35:28;;;;;;;29.10;17.75;;;;;;;;;;4935513;28;20035;-70
2022/10/25 00:37:54;;;;;;;29.88;16.85;;;;;;;;;;4939600;28;20044;-70
2022/10/25 00:40:20;;;;;;;30.02;17.75;;;;;;;;;;4937656;28;20413;-70
2022/10/25 00:42:46;;;;;;;25.98;16.80;;;;;;;;;;4943627;28;20109;-69
2022/10/25 00:45:27;;;;;;;30.08;17.25;;;;;;;;;;4940686;28;20058;-69
2022/10/25 00:48:09;;;;;;;24.70;16.17;;;;;;;;;;4934345;28;20047;-70
2022/10/25 00:50:43;;;;;;;28.08;17.02;;;;;;;;;;4940777;28;20043;-69
2022/10/25 00:53:14;;;;;;;25.33;17.20;;;;;;;;;;4936033;28;20065;-70
2022/10/25 00:55:41;;;;;;;26.85;16.20;;;;;;;;;;4941784;28;20129;-70
2022/10/25 00:58:27;;;;;;;28.23;17.05;;;;;;;;;;4941186;28;20039;-70
2022/10/25 01:00:55;;;;;;;26.55;15.55;;;;;;;;;;4938433;28;20055;-68
2022/10/25 01:03:22;;;;;;;25.20;16.23;;;;;;;;;;4941255;28;20051;-70
2022/10/25 01:05:48;;;;;;;30.75;16.08;;;;;;;;;;4941973;28;20145;-71
2022/10/25 01:08:15;;;;;;;26.17;15.48;;;;;;;;;;4939765;28;20050;-70
2022/10/25 01:10:41;;;;;;;25.55;16.00;;;;;;;;;;4941622;28;20600;-69
2022/10/25 01:13:08;;;;;;;23.88;15.13;;;;;;;;;;4942413;28;20416;-69
2022/10/25 01:15:40;;;;;;;30.65;16.27;;;;;;;;;;4940179;28;20049;-68
2022/10/25 01:18:16;;;;;;;25.83;15.27;;;;;;;;;;4941760;28;20054;-67
2022/10/25 01:20:45;;;;;;;29.67;15.38;;;;;;;;;;4938788;28;20046;-70
2022/10/25 01:23:30;;;;;;;22.50;14.43;;;;;;;;;;4940073;28;20490;-70
2022/10/25 01:26:06;;;;;;;24.33;14.55;;;;;;;;;;4937243;28;20521;-69
2022/10/25 01:28:51;;;;;;;24.38;14.10;;;;;;;;;;4937165;28;20043;-69
2022/10/25 01:31:37;;;;;;;26.45;14.60;;;;;;;;;;4943523;28;20051;-69
2022/10/25 01:34:33;;;;;;;21.65;14.10;;;;;;;;;;4939974;28;20057;-70
2022/10/25 01:37:16;;;;;;;25.30;13.68;;;;;;;;;;4950750;28;20058;-70
2022/10/25 01:39:56;;;;;;;25.63;13.68;;;;;;;;;;4937299;28;20059;-69
2022/10/25 01:42:27;;;;;;;23.90;13.43;;;;;;;;;;4939180;28;20063;-69
2022/10/25 01:45:06;;;;;;;20.63;13.07;;;;;;;;;;4927122;28;20048;-68
2022/10/25 01:47:39;;;;;;;20.48;12.38;;;;;;;;;;4955563;28;20051;-69
2022/10/25 01:50:05;;;;;;;26.92;13.23;;;;;;;;;;4938589;28;20055;-69
2022/10/25 01:52:30;;;;;;;18.55;12.30;;;;;;;;;;4936853;28;20047;-69
2022/10/25 01:54:56;;;;;;;21.00;12.02;;;;;;;;;;4937814;28;20047;-68
2022/10/25 01:57:41;;;;;;;20.60;12.00;;;;;;;;;;4946386;28;20458;-69
2022/10/25 02:00:07;;;;;;;22.20;12.85;;;;;;;;;;4936054;28;20134;-71
2022/10/25 02:02:41;;;;;;;21.23;12.30;;;;;;;;;;4945511;28;20130;-70
2022/10/25 02:05:07;;;;;;;19.80;11.93;;;;;;;;;;4938898;28;20035;-69
2022/10/25 02:07:37;;;;;;;20.90;11.77;;;;;;;;;;4939739;28;20047;-69
2022/10/25 02:10:08;;;;;;;28.75;12.82;;;;;;;;;;4945341;28;20058;-69
2022/10/25 02:12:42;;;;;;;21.75;12.90;;;;;;;;;;4936828;28;20135;-70
2022/10/25 02:15:11;;;;;;;21.98;11.60;;;;;;;;;;4937648;28;20082;-68
2022/10/25 02:17:41;;;;;;;24.50;12.15;;;;;;;;;;4921145;28;20067;-68
2022/10/25 02:20:08;;;;;;;24.35;12.18;;;;;;;;;;4940401;28;20050;-70
2022/10/25 02:22:34;;;;;;;29.77;13.25;;;;;;;;;;4937321;28;22165;-69
2022/10/25 02:25:00;;;;;;;20.38;12.02;;;;;;;;;;4938876;28;20242;-69
2022/10/25 02:27:27;;;;;;;20.83;11.93;;;;;;;;;;4940648;28;20382;-69
2022/10/25 02:29:54;;;;;;;22.85;12.63;;;;;;;;;;4925293;28;20051;-70
2022/10/25 02:32:20;;;;;;;24.20;12.02;;;;;;;;;;4939565;28;20129;-69
2022/10/25 02:34:49;;;;;;;20.98;12.13;;;;;;;;;;4938025;28;20043;-68
2022/10/25 02:37:16;;;;;;;23.25;13.13;;;;;;;;;;4943060;28;20398;-70
2022/10/25 02:39:42;;;;;;;23.85;13.60;;;;;;;;;;4938966;28;20050;-70
2022/10/25 02:42:08;;;;;;;22.48;13.43;;;;;;;;;;4935466;28;20142;-69
2022/10/25 02:44:34;;;;;;;24.70;13.68;;;;;;;;;;4936696;28;20090;-68
2022/10/25 02:47:00;;;;;;;22.10;13.35;;;;;;;;;;4937769;28;20051;-69
2022/10/25 02:49:27;;;;;;;23.33;13.63;;;;;;;;;;4936714;28;20050;-69
2022/10/25 02:51:53;;;;;;;22.42;13.82;;;;;;;;;;4936963;28;20114;-70
2022/10/25 02:54:19;;;;;;;26.15;13.75;;;;;;;;;;4936564;28;20095;-68
2022/10/25 02:56:45;;;;;;;22.10;13.27;;;;;;;;;;4924217;28;20047;-70
2022/10/25 02:59:14;;;;;;;26.20;13.68;;;;;;;;;;4938168;28;20516;-69
2022/10/25 03:01:40;;;;;;;23.92;13.25;;;;;;;;;;4937845;28;20133;-69
2022/10/25 03:04:06;;;;;;;25.35;13.63;;;;;;;;;;4938614;28;20065;-69
2022/10/25 03:06:32;;;;;;;24.77;13.50;;;;;;;;;;4939294;28;20051;-70
2022/10/25 03:08:58;;;;;;;23.75;13.25;;;;;;;;;;4936229;28;20494;-70
2022/10/25 03:11:24;;;;;;;23.15;12.77;;;;;;;;;;4933633;28;20040;-70
2022/10/25 03:13:50;;;;;;;23.40;13.05;;;;;;;;;;4935139;28;20047;-70
2022/10/25 03:16:16;;;;;;;18.08;12.40;;;;;;;;;;4939810;28;20050;-70
2022/10/25 03:18:42;;;;;;;27.80;13.40;;;;;;;;;;4935694;28;20043;-70
2022/10/25 03:21:08;;;;;;;26.08;13.63;;;;;;;;;;4936558;28;20062;-69
2022/10/25 03:23:34;;;;;;;26.08;14.07;;;;;;;;;;4939122;28;20039;-70
2022/10/25 03:26:00;;;;;;;22.15;13.80;;;;;;;;;;4938323;28;20383;-69
2022/10/25 03:28:27;;;;;;;28.90;14.65;;;;;;;;;;4938501;28;20062;-69
2022/10/25 03:30:53;;;;;;;28.38;14.73;;;;;;;;;;4935321;28;20095;-69
2022/10/25 03:33:19;;;;;;;21.23;14.02;;;;;;;;;;4938341;28;20054;-70
2022/10/25 03:35:48;;;;;;;22.88;13.38;;;;;;;;;;4940146;28;20098;-70
2022/10/25 03:38:14;;;;;;;23.15;13.52;;;;;;;;;;4939505;28;20039;-69
2022/10/25 03:40:41;;;;;;;28.77;14.05;;;;;;;;;;4934374;28;20062;-69
2022/10/25 03:43:07;;;;;;;27.73;14.25;;;;;;;;;;4937036;28;20049;-70
2022/10/25 03:45:33;;;;;;;25.40;14.65;;;;;;;;;;4935521;28;20493;-70
2022/10/25 03:47:59;;;;;;;27.13;14.25;;;;;;;;;;4933953;28;20054;-67
2022/10/25 03:50:25;;;;;;;28.00;13.90;;;;;;;;;;4953075;28;20150;-70
2022/10/25 03:52:51;;;;;;;24.02;14.68;;;;;;;;;;4934645;28;20050;-69
2022/10/25 03:55:17;;;;;;;26.42;13.70;;;;;;;;;;4937807;28;20043;-70
2022/10/25 03:57:43;;;;;;;29.38;14.93;;;;;;;;;;4937796;28;20066;-68
2022/10/25 04:00:09;;;;;;;30.05;14.40;;;;;;;;;;4939939;28;20047;-69
2022/10/25 04:02:35;;;;;;;23.63;14.63;;;;;;;;;;4939004;28;20714;-70
2022/10/25 04:05:01;;;;;;;30.55;15.00;;;;;;;;;;4938386;28;20110;-69
2022/10/25 04:07:27;;;;;;;25.73;14.15;;;;;;;;;;4938494;28;22288;-70
2022/10/25 04:09:53;;;;;;;31.42;15.02;;;;;;;;;;4934491;28;20093;-68
2022/10/25 04:12:19;;;;;;;29.95;14.68;;;;;;;;;;4934672;28;20654;-70
2022/10/25 04:14:45;;;;;;;23.98;13.75;;;;;;;;;;4938956;28;20192;-71
2022/10/25 04:17:11;;;;;;;25.98;14.68;;;;;;;;;;4943463;28;20099;-70
2022/10/25 04:19:37;;;;;;;32.13;15.15;;;;;;;;;;4939905;28;20091;-68
2022/10/25 04:22:03;;;;;;;30.08;14.88;;;;;;;;;;4950902;28;20641;-68
2022/10/25 04:24:29;;;;;;;25.77;14.52;;;;;;;;;;4940232;28;20074;-70
2022/10/25 04:26:55;;;;;;;31.67;14.80;;;;;;;;;;4942399;28;20051;-69
2022/10/25 04:29:21;;;;;;;31.45;14.48;;;;;;;;;;4940675;28;20125;-70
2022/10/25 04:31:47;;;;;;;28.60;13.68;;;;;;;;;;4940286;28;20046;-70
2022/10/25 04:34:13;;;;;;;27.98;13.75;;;;;;;;;;4939498;28;20047;-69
2022/10/25 04:36:39;;;;;;;29.30;13.75;;;;;;;;;;4944807;28;20086;-69
2022/10/25 04:39:05;;;;;;;30.70;13.43;;;;;;;;;;4944632;28;20043;-70
2022/10/25 04:41:31;;;;;;;26.38;12.48;;;;;;;;;;4940389;28;20054;-70
2022/10/25 04:43:57;;;;;;;34.55;13.02;;;;;;;;;;4937362;28;20050;-70
2022/10/25 04:46:23;;;;;;;24.05;12.68;;;;;;;;;;4939759;28;20055;-70
2022/10/25 04:48:49;;;;;;;26.77;12.23;;;;;;;;;;4934941;28;20071;-69
2022/10/25 04:51:15;;;;;;;27.80;12.15;;;;;;;;;;4939300;28;20500;-70
2022/10/25 04:53:41;;;;;;;31.30;12.73;;;;;;;;;;4939857;28;20043;-70
2022/10/25 04:56:08;;;;;;;30.42;12.38;;;;;;;;;;4938779;28;20464;-69
2022/10/25 04:58:35;;;;;;;24.75;12.48;;;;;;;;;;4941539;28;20074;-69
2022/10/25 05:01:03;;;;;;;29.00;12.23;;;;;;;;;;4943178;28;20051;-68
2022/10/25 05:03:29;;;;;;;18.77;12.02;;;;;;;;;;4939551;28;20390;-69
2022/10/25 05:05:55;;;;;;;28.13;12.05;;;;;;;;;;4937561;28;20059;-70
2022/10/25 05:08:21;;;;;;;33.17;12.68;;;;;;;;;;4939301;28;20040;-70
2022/10/25 05:10:56;;;;;;;34.35;12.18;;;;;;;;;;4934869;28;20062;-68
2022/10/25 05:13:22;;;;;;;27.27;11.40;;;;;;;;;;4937800;28;20116;-69
2022/10/25 05:15:57;;;;;;;27.70;11.05;;;;;;;;;;4936971;28;20530;-70
2022/10/25 05:18:23;;;;;;;27.10;11.90;;;;;;;;;;4940401;28;20142;-69
2022/10/25 05:20:53;;;;;;;32.55;12.65;;;;;;;;;;4939103;28;20053;-71
2022/10/25 05:23:19;;;;;;;30.65;11.65;;;;;;;;;;4938468;28;20163;-69
2022/10/25 05:25:45;;;;;;;24.38;11.43;;;;;;;;;;4936756;28;20106;-68
2022/10/25 05:28:11;;;;;;;25.50;10.93;;;;;;;;;;4939901;28;20070;-69
2022/10/25 05:30:43;;;;;;;17.27;10.32;;;;;;;;;;4938057;28;20051;-70
2022/10/25 05:33:10;;;;;;;23.65;11.02;;;;;;;;;;4950319;28;20044;-70
2022/10/25 05:35:35;;;;;;;29.08;11.80;;;;;;;;;;4937327;28;20586;-69
2022/10/25 05:38:02;;;;;;;22.35;11.27;;;;;;;;;;4937021;28;20131;-70
2022/10/25 05:40:28;;;;;;;22.50;11.88;;;;;;;;;;4949389;28;20049;-70
2022/10/25 05:42:54;;;;;;;23.55;11.23;;;;;;;;;;4949693;28;20058;-70
2022/10/25 05:45:20;;;;;;;25.98;11.70;;;;;;;;;;4954415;28;20058;-70
2022/10/25 05:47:46;;;;;;;26.85;11.00;;;;;;;;;;4948881;28;20039;-71
2022/10/25 05:50:11;;;;;;;21.73;10.90;;;;;;;;;;4951460;28;20505;-71
2022/10/25 05:52:41;;;;;;;23.52;10.70;;;;;;;;;;4957566;28;20034;-70
2022/10/25 05:55:07;;;;;;;24.90;10.13;;;;;;;;;;4929419;29;20047;-70
2022/10/25 05:57:33;;;;;;;25.23;9.95;;;;;;;;;;4948433;28;20561;-70
2022/10/25 06:00:00;;;;;;;20.50;9.85;;;;;;;;;;4946516;28;20519;-67
2022/10/25 06:02:26;;;;;;;22.67;9.90;;;;;;;;;;4949896;28;20042;-71
2022/10/25 06:04:51;;;;;;;24.85;10.60;;;;;;;;;;4955429;28;20062;-70
2022/10/25 06:07:17;;;;;;;27.63;10.02;;;;;;;;;;4944058;28;20124;-70
2022/10/25 06:09:43;;;;;;;26.25;10.23;;;;;;;;;;4948898;28;20082;-69
2022/10/25 06:12:09;;;;;;;23.52;10.60;;;;;;;;;;4939623;28;20051;-70
2022/10/25 06:14:35;;;;;;;28.90;11.25;;;;;;;;;;4944486;28;20053;-70
2022/10/25 06:17:01;;;;;;;22.75;10.73;;;;;;;;;;4945199;28;20043;-70
2022/10/25 06:19:27;;;;;;;25.23;10.27;;;;;;;;;;4946705;28;20425;-69
2022/10/25 06:21:55;;;;;;;26.42;10.48;;;;;;;;;;4940907;28;20051;-70
2022/10/25 06:24:21;;;;;;;20.92;10.05;;;;;;;;;;4948747;28;20043;-68
2022/10/25 06:26:47;;;;;;;28.77;11.00;;;;;;;;;;4942615;28;20051;-70
2022/10/25 06:29:13;;;;;;;27.67;10.80;;;;;;;;;;4944161;28;20059;-69
2022/10/25 06:31:40;;;;;;;27.38;10.75;;;;;;;;;;4940843;28;20489;-69
2022/10/25 06:34:06;;;;;;;28.67;11.02;;;;;;;;;;4945223;28;20048;-69
2022/10/25 06:36:32;;;;;;;23.75;10.82;;;;;;;;;;4950499;28;20094;-69
2022/10/25 06:38:58;;;;;;;32.00;10.88;;;;;;;;;;4946200;28;20050;-68
2022/10/25 06:41:26;;;;;;;28.33;11.05;;;;;;;;;;4950551;29;20474;-67
2022/10/25 06:43:52;;;;;;;29.77;11.85;;;;;;;;;;4943473;29;20039;-68
2022/10/25 06:46:23;;;;;;;28.83;12.20;;;;;;;;;;4950774;29;20050;-68
2022/10/25 06:48:50;;;;;;;30.42;11.50;;;;;;;;;;4943000;29;20051;-69
2022/10/25 06:51:16;;;;;;;29.88;11.57;;;;;;;;;;4949993;28;20043;-69
2022/10/25 06:53:42;;;;;;;30.85;11.70;;;;;;;;;;4950256;29;20155;-69
2022/10/25 06:56:09;;;;;;;27.95;10.48;;;;;;;;;;4950768;29;20491;-69
2022/10/25 06:58:35;;;;;;;32.25;12.40;;;;;;;;;;4952278;28;20449;-69
2022/10/25 07:01:02;;;;;;;32.88;11.50;;;;;;;;;;4952615;28;20078;-69
2022/10/25 07:03:33;;;;;;;27.60;12.02;;;;;;;;;;4945505;29;20062;-69
2022/10/25 07:06:00;;;;;;;28.73;11.77;;;;;;;;;;4951366;29;20047;-69
2022/10/25 07:08:26;;;;;;;31.08;11.52;;;;;;;;;;4942259;29;20053;-69
2022/10/25 07:10:53;;;;;;;23.98;11.80;;;;;;;;;;4951206;29;20074;-69
2022/10/25 07:13:19;;;;;;;27.05;12.13;;;;;;;;;;4949718;29;20075;-68
2022/10/25 07:15:45;;;;;;;28.83;11.80;;;;;;;;;;4950944;28;20146;-69
2022/10/25 07:18:10;;;;;;;26.20;11.35;;;;;;;;;;4941204;28;20043;-69
2022/10/25 07:20:36;;;;;;;27.10;12.02;;;;;;;;;;4951158;29;20075;-69
2022/10/25 07:23:02;;;;;;;32.75;11.77;;;;;;;;;;4950564;29;20502;-69
2022/10/25 07:25:29;;;;;;;27.13;11.70;;;;;;;;;;4949438;28;20214;-68
2022/10/25 07:27:56;;;;;;;33.92;11.75;;;;;;;;;;4950994;29;20055;-69
2022/10/25 07:30:22;;;;;;;33.20;11.90;;;;;;;;;;4950989;28;20048;-69
2022/10/25 07:32:47;;;;;;;28.85;11.68;;;;;;;;;;4944291;28;20067;-68
2022/10/25 07:35:13;;;;;;;34.90;12.32;;;;;;;;;;4953063;28;20051;-68
2022/10/25 07:37:39;;;;;;;27.00;12.30;;;;;;;;;;4957375;28;20057;-68
2022/10/25 07:40:06;;;;;;;29.27;11.82;;;;;;;;;;4960516;28;20051;-69
2022/10/25 07:42:32;;;;;;;33.85;12.48;;;;;;;;;;4955960;28;20485;-69
2022/10/25 07:44:58;;;;;;;36.08;13.23;;;;;;;;;;4957010;28;20122;-68
2022/10/25 07:47:24;;;;;;;28.13;11.98;;;;;;;;;;4951362;28;20469;-69
2022/10/25 07:49:49;;;;;;;32.45;13.05;;;;;;;;;;4935623;29;20047;-69
2022/10/25 07:52:15;;;;;;;26.17;11.65;;;;;;;;;;4961651;28;20113;-69
2022/10/25 07:54:41;;;;;;;29.85;11.93;;;;;;;;;;4962380;28;20051;-69
2022/10/25 07:57:08;;;;;;;31.75;12.00;;;;;;;;;;4961830;28;20073;-69
2022/10/25 07:59:34;;;;;;;27.40;10.90;;;;;;;;;;4955603;28;20047;-67
2022/10/25 08:02:00;;;;;;;25.60;11.60;;;;;;;;;;4951941;28;20035;-67
2022/10/25 08:04:30;;;;;;;28.50;12.30;;;;;;;;;;4953658;29;20047;-69
2022/10/25 08:06:58;;;;;;;28.05;12.40;;;;;;;;;;4954381;29;20047;-69
2022/10/25 08:09:24;;;;;;;32.72;12.60;;;;;;;;;;4954450;29;20047;-69
2022/10/25 08:11:50;;;;;;;29.33;11.82;;;;;;;;;;4953933;29;20050;-69
2022/10/25 08:14:16;;;;;;;29.52;12.25;;;;;;;;;;4952949;29;20040;-69
2022/10/25 08:16:41;;;;;;;23.83;11.20;;;;;;;;;;4948694;28;20166;-69
2022/10/25 08:19:07;;;;;;;27.00;12.05;;;;;;;;;;4962266;28;20047;-69
2022/10/25 08:21:33;;;;;;;27.58;12.15;;;;;;;;;;4957456;28;20137;-69
2022/10/25 08:23:59;;;;;;;28.55;12.02;;;;;;;;;;4961151;28;20605;-69
2022/10/25 08:26:27;;;;;;;24.88;11.63;;;;;;;;;;4954359;28;20121;-69
2022/10/25 08:28:53;;;;;;;24.60;11.40;;;;;;;;;;4961322;28;20441;-68
2022/10/25 08:31:19;;;;;;;26.13;10.90;;;;;;;;;;4961735;28;20177;-68
2022/10/25 08:33:45;;;;;;;21.58;11.55;;;;;;;;;;4959212;28;20555;-68
2022/10/25 08:36:11;;;;;;;23.42;11.43;;;;;;;;;;4955280;28;20051;-69
2022/10/25 08:38:37;;;;;;;27.30;11.38;;;;;;;;;;4946281;28;20042;-69
2022/10/25 08:41:08;;;;;;;24.13;10.18;;;;;;;;;;4959593;28;20051;-66
2022/10/25 08:43:55;;;;;;;27.63;10.82;;;;;;;;;;4961017;28;20545;-69
2022/10/25 08:46:24;;;;;;;22.27;10.95;;;;;;;;;;4944643;28;20070;-69
2022/10/25 08:48:53;;;;;;;23.02;10.65;;;;;;;;;;4948541;28;20411;-68
2022/10/25 08:51:25;;;;;;;21.05;10.10;;;;;;;;;;4950771;29;20090;-69
2022/10/25 08:53:53;;;;;;;20.27;9.27;;;;;;;;;;4944760;29;20448;-69
2022/10/25 08:56:19;;;;;;;21.15;9.57;;;;;;;;;;4952739;29;20071;-68
2022/10/25 08:58:48;;;;;;;19.45;8.75;;;;;;;;;;4954574;28;20094;-69
2022/10/25 09:01:18;;;;;;;20.45;9.88;;;;;;;;;;4953392;28;20062;-69
2022/10/25 09:03:44;;;;;;;17.35;9.32;;;;;;;;;;4953091;29;20733;-69
2022/10/25 09:06:17;;;;;;;19.45;8.23;;;;;;;;;;4953042;28;20174;-69
2022/10/25 09:08:50;;;;;;;21.23;8.98;;;;;;;;;;4953100;29;20135;-68
2022/10/25 09:11:33;;;;;;;17.88;8.05;;;;;;;;;;4952243;29;20043;-69
2022/10/25 09:13:59;;;;;;;21.13;7.72;;;;;;;;;;4941532;29;20043;-69
2022/10/25 09:16:35;;;;;;;14.68;7.85;;;;;;;;;;4953201;29;20118;-69
2022/10/25 09:19:03;;;;;;;18.45;8.30;;;;;;;;;;4953180;29;20053;-69
2022/10/25 09:21:32;;;;;;;18.60;6.95;;;;;;;;;;4952870;29;20050;-68
2022/10/25 09:24:00;;;;;;;19.90;7.45;;;;;;;;;;4936267;29;20486;-69
2022/10/25 09:26:39;;;;;;;21.35;6.53;;;;;;;;;;4953445;29;20404;-69
2022/10/25 09:29:11;;;;;;;19.63;6.53;;;;;;;;;;4951838;28;20130;-69
2022/10/25 09:31:40;;;;;;;17.58;6.28;;;;;;;;;;4952873;29;20051;-68
2022/10/25 09:34:08;;;;;;;15.55;6.20;;;;;;;;;;4952059;29;20397;-69
2022/10/25 09:36:40;;;;;;;17.63;5.95;;;;;;;;;;4952369;29;20047;-69
2022/10/25 09:39:11;;;;;;;21.03;6.23;;;;;;;;;;4952760;28;20056;-68
2022/10/25 09:41:40;;;;;;;18.67;5.93;;;;;;;;;;4952502;29;20505;-68
2022/10/25 09:44:17;;;;;;;16.52;5.78;;;;;;;;;;4952193;29;20051;-68
2022/10/25 09:46:44;;;;;;;13.68;6.13;;;;;;;;;;4949221;29;20061;-69
2022/10/25 09:49:29;;;;;;;13.57;5.82;;;;;;;;;;4954018;28;20058;-69
2022/10/25 09:52:01;;;;;;;18.98;5.65;;;;;;;;;;4949379;29;20046;-69
2022/10/25 09:54:50;;;;;;;15.45;6.03;;;;;;;;;;4952473;29;20049;-69
2022/10/25 09:57:16;;;;;;;19.27;5.85;;;;;;;;;;4923855;29;20184;-69
2022/10/25 09:59:42;;;;;;;13.27;6.25;;;;;;;;;;4959269;28;20058;-68
2022/10/25 10:02:22;;;;;;;14.45;5.50;;;;;;;;;;4951148;29;20047;-69
2022/10/25 10:04:48;;;;;;;18.27;5.38;;;;;;;;;;4945556;29;20135;-69
2022/10/25 10:07:20;;;;;;;13.52;5.28;;;;;;;;;;4952634;29;20051;-69
2022/10/25 10:09:46;;;;;;;12.90;4.83;;;;;;;;;;4950368;29;20699;-69
2022/10/25 10:12:20;;;;;;;13.40;5.50;;;;;;;;;;4951574;29;20134;-68
2022/10/25 10:14:58;;;;;;;14.40;5.22;;;;;;;;;;4943541;29;20043;-69
2022/10/25 10:17:24;;;;;;;15.80;4.93;;;;;;;;;;4952421;29;20696;-68
2022/10/25 10:20:07;;;;;;;14.32;5.57;;;;;;;;;;4943322;28;20054;-68
2022/10/25 10:22:35;;;;;;;16.60;4.90;;;;;;;;;;4941644;29;20047;-69
2022/10/25 10:25:02;;;;;;;13.75;5.00;;;;;;;;;;4953055;28;20090;-69
2022/10/25 10:27:28;;;;;;;16.70;5.13;;;;;;;;;;4952029;29;20497;-67
2022/10/25 10:29:59;;;;;;;11.35;4.82;;;;;;;;;;4935734;29;20377;-67
2022/10/25 10:32:27;;;;;;;9.93;4.80;;;;;;;;;;4940592;29;20047;-69
2022/10/25 10:35:01;;;;;;;19.15;5.65;;;;;;;;;;5126828;27;20499;-67
2022/10/25 10:37:28;;;;;;;12.90;5.25;;;;;;;;;;5126802;28;20046;-68
2022/10/25 10:39:55;;;;;;;14.05;5.10;;;;;;;;;;5127267;28;20055;-68
2022/10/25 10:42:22;;;;;;;12.77;4.55;;;;;;;;;;5136223;27;20524;-70
2022/10/25 10:45:00;;;;;;;14.18;5.40;;;;;;;;;;5128165;27;20073;-69
2022/10/25 10:47:28;;;;;;;15.45;5.22;;;;;;;;;;5120618;27;20083;-70
2022/10/25 10:49:54;;;;;;;11.55;4.80;;;;;;;;;;5141597;27;20074;-69
2022/10/25 10:52:30;;;;;;;13.80;4.95;;;;;;;;;;5133306;27;20074;-70
2022/10/25 10:54:56;;;;;;;10.63;4.30;;;;;;;;;;5123713;27;20051;-69
2022/10/25 10:57:33;;;;;;;15.45;4.88;;;;;;;;;;5128078;27;20039;-70
2022/10/25 11:00:00;;;;;;;12.13;4.88;;;;;;;;;;5121230;27;20035;-69
2022/10/25 11:02:39;;;;;;;14.70;4.95;;;;;;;;;;5130097;27;20047;-70
2022/10/25 11:05:17;;;;;;;12.20;4.40;;;;;;;;;;5125715;27;20039;-68
2022/10/25 11:07:43;;;;;;;13.52;5.00;;;;;;;;;;5124533;27;20050;-70
2022/10/25 11:10:19;;;;;;;12.63;3.90;;;;;;;;;;5138610;27;20126;-70
2022/10/25 11:13:03;;;;;;;15.80;4.13;;;;;;;;;;5131983;27;20044;-69
2022/10/25 11:15:32;;;;;;;10.32;3.53;;;;;;;;;;5129065;27;20401;-68
2022/10/25 11:18:02;;;;;;;10.05;3.83;;;;;;;;;;5135110;27;20122;-69
2022/10/25 11:20:49;;;;;;;9.88;3.83;;;;;;;;;;5127035;27;20093;-70
2022/10/25 11:23:24;;;;;;;9.43;3.60;;;;;;;;;;5136195;27;20054;-70
2022/10/25 11:25:54;;;;;;;13.70;4.25;;;;;;;;;;5122746;27;20054;-69
2022/10/25 11:28:28;;;;;;;15.00;4.85;;;;;;;;;;5129627;27;20085;-69
2022/10/25 11:31:14;;;;;;;15.48;4.57;;;;;;;;;;5121322;27;20078;-69
2022/10/25 11:33:43;;;;;;;9.02;3.70;;;;;;;;;;5086384;27;20089;-68
2022/10/25 11:36:31;;;;;;;9.98;3.35;;;;;;;;;;5125912;28;20043;-69
2022/10/25 11:39:10;;;;;;;14.23;3.78;;;;;;;;;;5123532;27;20047;-69
2022/10/25 11:42:03;;;;;;;9.93;3.35;;;;;;;;;;5112815;27;20052;-69
2022/10/25 11:44:47;;;;;;;8.45;3.45;;;;;;;;;;5088426;27;20478;-69
2022/10/25 11:47:27;;;;;;;12.23;3.28;;;;;;;;;;5117962;27;20134;-69
2022/10/25 11:49:58;;;;;;;8.95;3.22;;;;;;;;;;5110492;27;20050;-69
2022/10/25 11:52:34;;;;;;;10.45;3.08;;;;;;;;;;5123126;27;20071;-69
2022/10/25 11:55:19;;;;;;;11.15;3.33;;;;;;;;;;5109322;27;20405;-69
2022/10/25 11:57:53;;;;;;;8.60;3.08;;;;;;;;;;5123840;27;20046;-69
2022/10/25 12:00:21;;;;;;;9.45;3.40;;;;;;;;;;5117290;27;20572;-69
2022/10/25 12:03:02;;;;;;;10.93;2.78;;;;;;;;;;5109262;27;20059;-70
2022/10/25 12:05:40;;;;;;;11.73;3.05;;;;;;;;;;5123538;27;20127;-69
2022/10/25 12:08:15;;;;;;;10.13;3.35;;;;;;;;;;5109550;27;20516;-69
2022/10/25 12:10:43;;;;;;;8.45;2.95;;;;;;;;;;5088963;28;20475;-69
2022/10/25 12:13:18;;;;;;;9.65;3.25;;;;;;;;;;5112287;27;20554;-69
2022/10/25 12:15:46;;;;;;;14.32;2.67;;;;;;;;;;5116940;27;20044;-68
2022/10/25 12:18:17;;;;;;;9.95;2.35;;;;;;;;;;5102707;27;20061;-69
2022/10/25 12:20:44;;;;;;;7.53;2.47;;;;;;;;;;5098599;27;20089;-69
2022/10/25 12:23:13;;;;;;;10.30;2.45;;;;;;;;;;5119723;27;20048;-69
2022/10/25 12:25:59;;;;;;;9.15;2.70;;;;;;;;;;5118755;27;20044;-69
2022/10/25 12:28:31;;;;;;;12.32;3.05;;;;;;;;;;5107182;27;20417;-69
2022/10/25 12:31:06;;;;;;;8.63;2.47;;;;;;;;;;5121491;27;20047;-69
2022/10/25 12:33:44;;;;;;;6.80;2.35;;;;;;;;;;5111156;28;20050;-69
2022/10/25 12:36:15;;;;;;;7.68;2.35;;;;;;;;;;5111291;27;20126;-69
2022/10/25 12:38:41;;;;;;;10.15;2.50;;;;;;;;;;5108757;28;20040;-69
2022/10/25 12:41:09;;;;;;;8.85;2.92;;;;;;;;;;5114664;27;20205;-69
2022/10/25 12:43:41;;;;;;;8.70;2.42;;;;;;;;;;5113427;27;20051;-68
2022/10/25 12:46:26;;;;;;;9.38;2.40;;;;;;;;;;5106188;28;20047;-69
2022/10/25 12:48:52;;;;;;;11.00;2.90;;;;;;;;;;5105158;27;20058;-69
2022/10/25 12:51:21;;;;;;;10.13;2.55;;;;;;;;;;5094597;28;20047;-68
2022/10/25 12:54:04;;;;;;;7.25;2.10;;;;;;;;;;5096973;27;20047;-69
2022/10/25 12:56:30;;;;;;;;;;;;;;;;;;5097951;28;20095;-68
2022/10/25 12:59:13;;;;;;;9.27;2.10;;;;;;;;;;5111291;27;20019;-69
2022/10/25 13:01:53;;;;;;;8.68;2.83;;;;;;;;;;5115334;27;20687;-69
2022/10/25 13:04:22;;;;;;;10.05;2.50;;;;;;;;;;5120542;27;20057;-68
2022/10/25 13:06:49;;;;;;;8.35;2.40;;;;;;;;;;5118896;27;20040;-68
2022/10/25 13:09:20;;;;;;;7.72;2.60;;;;;;;;;;5109841;27;20043;-69
2022/10/25 13:11:48;;;;;;;12.30;2.70;;;;;;;;;;5102113;27;20134;-69
2022/10/25 13:14:31;;;;;;;10.23;2.42;;;;;;;;;;5126157;27;20551;-69
2022/10/25 13:17:15;;;;;;;7.63;2.60;;;;;;;;;;5100079;27;20513;-69
2022/10/25 13:19:42;;;;;;;8.93;2.78;;;;;;;;;;5114047;27;20040;-69
2022/10/25 13:22:29;;;;;;;5.57;2.13;;;;;;;;;;5112018;27;20126;-68
2022/10/25 13:24:56;;;;;;;8.23;2.47;;;;;;;;;;5104322;27;20760;-68
2022/10/25 13:27:23;;;;;;;11.30;2.40;;;;;;;;;;5105394;27;20379;-68
2022/10/25 13:30:16;;;;;;;7.90;2.50;;;;;;;;;;5102391;27;20048;-69
2022/10/25 13:32:42;;;;;;;10.43;2.35;;;;;;;;;;5104698;27;20079;-69
2022/10/25 13:35:28;;;;;;;8.38;2.10;;;;;;;;;;5107605;27;20050;-70
2022/10/25 13:38:17;;;;;;;7.03;2.20;;;;;;;;;;5065750;28;20044;-70
2022/10/25 13:40:43;;;;;;;7.03;1.73;;;;;;;;;;5084901;28;20040;-69
2022/10/25 13:43:19;;;;;;;11.93;2.30;;;;;;;;;;5105745;28;20096;-70
2022/10/25 13:45:46;;;;;;;5.50;2.03;;;;;;;;;;5109337;27;20039;-69
2022/10/25 13:48:12;;;;;;;6.68;2.00;;;;;;;;;;5105942;27;20047;-67
2022/10/25 13:50:43;;;;;;;9.15;2.20;;;;;;;;;;5115870;27;20044;-69
2022/10/25 13:53:12;;;;;;;10.45;2.35;;;;;;;;;;5104126;27;20131;-70
2022/10/25 13:55:43;;;;;;;9.10;2.42;;;;;;;;;;5102447;27;20077;-69
2022/10/25 13:58:27;;;;;;;9.07;2.28;;;;;;;;;;5102362;28;20040;-69
2022/10/25 14:00:54;;;;;;;12.45;2.30;;;;;;;;;;5104943;28;20397;-69
2022/10/25 14:03:20;;;;;;;13.00;2.75;;;;;;;;;;5107186;27;20051;-69
2022/10/25 14:05:55;;;;;;;11.05;2.25;;;;;;;;;;5096633;28;20628;-69
2022/10/25 14:08:34;;;;;;;8.85;2.13;;;;;;;;;;5103941;27;20135;-69
2022/10/25 14:11:07;;;;;;;8.15;2.10;;;;;;;;;;5109835;27;22284;-68
2022/10/25 14:13:32;;;;;;;;;;;;;;;;;;5106584;27;20401;-69
2022/10/25 14:16:02;;;;;;;5.38;1.75;;;;;;;;;;5104714;28;19915;-69
2022/10/25 14:18:29;;;;;;;12.10;2.25;;;;;;;;;;5100481;28;20052;-69
2022/10/25 14:20:58;;;;;;;10.70;2.10;;;;;;;;;;5101470;28;20054;-69
2022/10/25 14:23:28;;;;;;;5.40;1.85;;;;;;;;;;5100205;28;20035;-69
2022/10/25 14:25:56;;;;;;;9.00;2.05;;;;;;;;;;5111171;27;20405;-69
2022/10/25 14:28:26;;;;;;;9.30;2.03;;;;;;;;;;5105653;28;20044;-69
2022/10/25 14:31:03;;;;;;;8.70;1.95;;;;;;;;;;5099890;28;20048;-69
2022/10/25 14:33:36;;;;;;;7.18;2.22;;;;;;;;;;5101164;28;20452;-69
2022/10/25 14:36:05;;;;;;;10.18;2.33;;;;;;;;;;5095104;28;20040;-69
2022/10/25 14:38:34;;;;;;;8.95;2.22;;;;;;;;;;5092126;28;20130;-69